Terminal Aerodrome Forecast
Issued by NWS Sioux Falls, SD

Home | Current Version | Previous Version | Graphics & Text | Print | Product List | Glossary Off
Versions: 1 2 3 4 5 6 7 8 9 10 11 12 13 14 15

000
FTUS43 KFSD 182300
TAFFSD
TAF
KFSD 182333Z 1900/1924 16020G30KT P6SM OVC200
     FM191000 18016G22KT P6SM BKN150
     FM191700 32010KT P6SM SCT040 BKN120
     FM191900 36005KT P6SM OVC100=

USA.gov is the U.S. government's official web portal to all federal, state and local government web resources and services.